sensor_id;sensor_type;location;lat;lon;timestamp;temperature;humidity
42907;DHT22;28552;51.146;6.576;2023-05-10T00:02:16;12.90;99.90
42907;DHT22;28552;51.146;6.576;2023-05-10T00:05:17;12.90;99.90
42907;DHT22;28552;51.146;6.576;2023-05-10T00:08:18;12.90;99.90
42907;DHT22;28552;51.146;6.576;2023-05-10T00:11:18;12.90;99.90
42907;DHT22;28552;51.146;6.576;2023-05-10T00:14:19;12.90;99.90
42907;DHT22;28552;51.146;6.576;2023-05-10T00:17:19;12.90;99.90
42907;DHT22;28552;51.146;6.576;2023-05-10T00:20:20;12.90;99.90
42907;DHT22;28552;51.146;6.576;2023-05-10T00:23:20;12.90;99.90
42907;DHT22;28552;51.146;6.576;2023-05-10T00:26:21;12.90;99.90
42907;DHT22;28552;51.146;6.576;2023-05-10T00:29:22;12.90;99.90
42907;DHT22;28552;51.146;6.576;2023-05-10T00:32:23;12.80;99.90
42907;DHT22;28552;51.146;6.576;2023-05-10T00:35:24;12.80;99.90
42907;DHT22;28552;51.146;6.576;2023-05-10T00:38:24;12.80;99.90
42907;DHT22;28552;51.146;6.576;2023-05-10T00:41:25;12.70;99.90
42907;DHT22;28552;51.146;6.576;2023-05-10T00:44:25;12.70;99.90
42907;DHT22;28552;51.146;6.576;2023-05-10T00:47:26;12.70;99.90
42907;DHT22;28552;51.146;6.576;2023-05-10T00:50:27;12.70;99.90
42907;DHT22;28552;51.146;6.576;2023-05-10T00:53:28;12.60;99.90
42907;DHT22;28552;51.146;6.576;2023-05-10T00:56:31;12.60;99.90
42907;DHT22;28552;51.146;6.576;2023-05-10T00:59:32;12.50;99.90
42907;DHT22;28552;51.146;6.576;2023-05-10T01:02:34;12.50;99.90
42907;DHT22;28552;51.146;6.576;2023-05-10T01:05:34;12.50;99.90
42907;DHT22;28552;51.146;6.576;2023-05-10T01:08:35;12.40;99.90
42907;DHT22;28552;51.146;6.576;2023-05-10T01:11:38;12.40;99.90
42907;DHT22;28552;51.146;6.576;2023-05-10T01:14:39;12.40;99.90
42907;DHT22;28552;51.146;6.576;2023-05-10T01:17:43;12.40;99.90
42907;DHT22;28552;51.146;6.576;2023-05-10T01:20:50;12.40;99.90
42907;DHT22;28552;51.146;6.576;2023-05-10T01:24:21;12.40;99.90
42907;DHT22;28552;51.146;6.576;2023-05-10T01:27:47;12.40;99.90
42907;DHT22;28552;51.146;6.576;2023-05-10T01:34:27;12.40;99.90
42907;DHT22;28552;51.146;6.576;2023-05-10T01:37:44;12.40;99.90
42907;DHT22;28552;51.146;6.576;2023-05-10T01:41:03;12.50;99.90
42907;DHT22;28552;51.146;6.576;2023-05-10T01:44:17;12.50;99.90
42907;DHT22;28552;51.146;6.576;2023-05-10T01:50:43;12.60;99.90
42907;DHT22;28552;51.146;6.576;2023-05-10T01:53:45;12.60;99.90
42907;DHT22;28552;51.146;6.576;2023-05-10T01:56:52;12.60;99.90
42907;DHT22;28552;51.146;6.576;2023-05-10T01:59:56;12.60;99.90
42907;DHT22;28552;51.146;6.576;2023-05-10T02:02:57;12.60;99.90
42907;DHT22;28552;51.146;6.576;2023-05-10T02:06:00;12.50;99.90
42907;DHT22;28552;51.146;6.576;2023-05-10T02:09:02;12.50;99.90
42907;DHT22;28552;51.146;6.576;2023-05-10T02:12:05;12.50;99.90
42907;DHT22;28552;51.146;6.576;2023-05-10T02:15:07;12.50;99.90
42907;DHT22;28552;51.146;6.576;2023-05-10T02:18:10;12.50;99.90
42907;DHT22;28552;51.146;6.576;2023-05-10T02:21:13;12.50;99.90
42907;DHT22;28552;51.146;6.576;2023-05-10T02:24:15;12.50;99.90
42907;DHT22;28552;51.146;6.576;2023-05-10T02:27:17;12.60;99.90
42907;DHT22;28552;51.146;6.576;2023-05-10T02:30:20;12.50;99.90
42907;DHT22;28552;51.146;6.576;2023-05-10T02:33:22;12.50;99.90
42907;DHT22;28552;51.146;6.576;2023-05-10T02:36:23;12.50;99.90
42907;DHT22;28552;51.146;6.576;2023-05-10T02:39:24;12.50;99.90
42907;DHT22;28552;51.146;6.576;2023-05-10T02:42:27;12.50;99.90
42907;DHT22;28552;51.146;6.576;2023-05-10T02:45:31;12.50;99.90
42907;DHT22;28552;51.146;6.576;2023-05-10T02:48:32;12.50;99.90
42907;DHT22;28552;51.146;6.576;2023-05-10T02:51:36;12.50;99.90
42907;DHT22;28552;51.146;6.576;2023-05-10T02:54:43;12.50;99.90
42907;DHT22;28552;51.146;6.576;2023-05-10T02:57:51;12.50;99.90
42907;DHT22;28552;51.146;6.576;2023-05-10T03:00:52;12.40;99.90
42907;DHT22;28552;51.146;6.576;2023-05-10T03:03:53;12.50;99.90
42907;DHT22;28552;51.146;6.576;2023-05-10T03:06:53;12.50;99.90
42907;DHT22;28552;51.146;6.576;2023-05-10T03:09:54;12.50;99.90
42907;DHT22;28552;51.146;6.576;2023-05-10T03:13:06;12.50;99.90
42907;DHT22;28552;51.146;6.576;2023-05-10T03:16:14;12.50;99.90
42907;DHT22;28552;51.146;6.576;2023-05-10T03:19:24;12.50;99.90
42907;DHT22;28552;51.146;6.576;2023-05-10T03:22:38;12.50;99.90
42907;DHT22;28552;51.146;6.576;2023-05-10T03:25:39;12.50;99.90
42907;DHT22;28552;51.146;6.576;2023-05-10T03:28:41;12.50;99.90
42907;DHT22;28552;51.146;6.576;2023-05-10T03:31:42;12.60;99.90
42907;DHT22;28552;51.146;6.576;2023-05-10T03:34:42;12.60;99.90
42907;DHT22;28552;51.146;6.576;2023-05-10T03:37:44;12.60;99.90
42907;DHT22;28552;51.146;6.576;2023-05-10T03:40:44;12.60;99.90
42907;DHT22;28552;51.146;6.576;2023-05-10T03:43:45;12.70;99.90
42907;DHT22;28552;51.146;6.576;2023-05-10T03:46:45;12.70;99.90
42907;DHT22;28552;51.146;6.576;2023-05-10T03:49:46;12.70;99.90
42907;DHT22;28552;51.146;6.576;2023-05-10T03:52:46;12.70;99.90
42907;DHT22;28552;51.146;6.576;2023-05-10T03:55:47;12.70;99.90
42907;DHT22;28552;51.146;6.576;2023-05-10T03:58:48;12.70;99.90
42907;DHT22;28552;51.146;6.576;2023-05-10T04:01:48;12.70;99.90
42907;DHT22;28552;51.146;6.576;2023-05-10T04:04:49;12.80;99.90
42907;DHT22;28552;51.146;6.576;2023-05-10T04:07:49;12.80;99.90
42907;DHT22;28552;51.146;6.576;2023-05-10T04:10:51;12.80;99.90
42907;DHT22;28552;51.146;6.576;2023-05-10T04:13:51;12.80;99.90
42907;DHT22;28552;51.146;6.576;2023-05-10T04:16:52;12.80;99.90
42907;DHT22;28552;51.146;6.576;2023-05-10T04:19:52;12.80;99.90
42907;DHT22;28552;51.146;6.576;2023-05-10T04:22:54;12.80;99.90
42907;DHT22;28552;51.146;6.576;2023-05-10T04:26:00;12.80;99.90
42907;DHT22;28552;51.146;6.576;2023-05-10T04:29:00;12.80;99.90
42907;DHT22;28552;51.146;6.576;2023-05-10T04:32:01;12.80;99.90
42907;DHT22;28552;51.146;6.576;2023-05-10T04:35:01;12.80;99.90
42907;DHT22;28552;51.146;6.576;2023-05-10T04:38:03;12.80;99.90
42907;DHT22;28552;51.146;6.576;2023-05-10T04:41:08;12.80;99.90
42907;DHT22;28552;51.146;6.576;2023-05-10T04:44:09;12.80;99.90
42907;DHT22;28552;51.146;6.576;2023-05-10T04:47:09;12.80;99.90
42907;DHT22;28552;51.146;6.576;2023-05-10T04:50:10;12.80;99.90
42907;DHT22;28552;51.146;6.576;2023-05-10T04:53:11;12.80;99.90
42907;DHT22;28552;51.146;6.576;2023-05-10T04:56:12;12.90;99.90
42907;DHT22;28552;51.146;6.576;2023-05-10T04:59:12;12.90;99.90
42907;DHT22;28552;51.146;6.576;2023-05-10T05:02:13;12.80;99.90
42907;DHT22;28552;51.146;6.576;2023-05-10T05:05:13;12.80;99.90
42907;DHT22;28552;51.146;6.576;2023-05-10T05:08:14;12.80;99.90
42907;DHT22;28552;51.146;6.576;2023-05-10T05:11:14;12.80;99.90
42907;DHT22;28552;51.146;6.576;2023-05-10T05:14:15;12.80;99.90
42907;DHT22;28552;51.146;6.576;2023-05-10T05:17:16;12.80;99.90
42907;DHT22;28552;51.146;6.576;2023-05-10T05:20:16;12.80;99.90
42907;DHT22;28552;51.146;6.576;2023-05-10T05:23:17;12.80;99.90
42907;DHT22;28552;51.146;6.576;2023-05-10T05:26:18;12.70;99.90
42907;DHT22;28552;51.146;6.576;2023-05-10T05:29:19;12.70;99.90
42907;DHT22;28552;51.146;6.576;2023-05-10T05:32:19;12.70;99.90
42907;DHT22;28552;51.146;6.576;2023-05-10T05:35:20;12.70;99.90
42907;DHT22;28552;51.146;6.576;2023-05-10T05:38:21;12.70;99.90
42907;DHT22;28552;51.146;6.576;2023-05-10T05:41:21;12.70;99.90
42907;DHT22;28552;51.146;6.576;2023-05-10T05:44:22;12.70;99.90
42907;DHT22;28552;51.146;6.576;2023-05-10T05:47:22;12.70;99.90
42907;DHT22;28552;51.146;6.576;2023-05-10T05:50:23;12.70;99.90
42907;DHT22;28552;51.146;6.576;2023-05-10T05:53:23;12.70;99.90
42907;DHT22;28552;51.146;6.576;2023-05-10T05:56:24;12.70;99.90
42907;DHT22;28552;51.146;6.576;2023-05-10T05:59:25;12.70;99.90
42907;DHT22;28552;51.146;6.576;2023-05-10T06:02:26;12.70;99.90
42907;DHT22;28552;51.146;6.576;2023-05-10T06:05:26;12.60;99.90
42907;DHT22;28552;51.146;6.576;2023-05-10T06:08:27;12.60;99.90
42907;DHT22;28552;51.146;6.576;2023-05-10T06:11:27;12.60;99.90
42907;DHT22;28552;51.146;6.576;2023-05-10T06:14:28;12.70;99.90
42907;DHT22;28552;51.146;6.576;2023-05-10T06:17:28;12.70;99.90
42907;DHT22;28552;51.146;6.576;2023-05-10T06:20:29;12.80;99.90
42907;DHT22;28552;51.146;6.576;2023-05-10T06:23:31;12.80;99.90
42907;DHT22;28552;51.146;6.576;2023-05-10T06:26:33;12.90;99.90
42907;DHT22;28552;51.146;6.576;2023-05-10T06:29:33;12.90;99.90
42907;DHT22;28552;51.146;6.576;2023-05-10T06:32:34;12.90;99.90
42907;DHT22;28552;51.146;6.576;2023-05-10T06:35:34;12.90;99.90
42907;DHT22;28552;51.146;6.576;2023-05-10T06:38:35;12.90;99.90
42907;DHT22;28552;51.146;6.576;2023-05-10T06:41:35;12.90;99.90
42907;DHT22;28552;51.146;6.576;2023-05-10T06:44:36;12.90;99.90
42907;DHT22;28552;51.146;6.576;2023-05-10T06:47:37;13.00;99.90
42907;DHT22;28552;51.146;6.576;2023-05-10T06:50:37;13.10;99.90
42907;DHT22;28552;51.146;6.576;2023-05-10T06:53:38;13.20;99.90
42907;DHT22;28552;51.146;6.576;2023-05-10T06:56:38;13.30;99.90
42907;DHT22;28552;51.146;6.576;2023-05-10T06:59:39;13.30;99.90
42907;DHT22;28552;51.146;6.576;2023-05-10T07:02:39;13.30;99.90
42907;DHT22;28552;51.146;6.576;2023-05-10T07:05:40;13.40;99.90
42907;DHT22;28552;51.146;6.576;2023-05-10T07:08:40;13.40;99.90
42907;DHT22;28552;51.146;6.576;2023-05-10T07:11:41;13.40;99.90
42907;DHT22;28552;51.146;6.576;2023-05-10T07:14:42;13.30;99.90
42907;DHT22;28552;51.146;6.576;2023-05-10T07:17:42;13.20;99.90
42907;DHT22;28552;51.146;6.576;2023-05-10T07:20:43;13.20;99.90
42907;DHT22;28552;51.146;6.576;2023-05-10T07:23:43;13.10;99.90
42907;DHT22;28552;51.146;6.576;2023-05-10T07:26:44;13.10;99.90
42907;DHT22;28552;51.146;6.576;2023-05-10T07:29:44;13.10;99.90
42907;DHT22;28552;51.146;6.576;2023-05-10T07:32:45;13.00;99.90
42907;DHT22;28552;51.146;6.576;2023-05-10T07:35:46;13.00;99.90
42907;DHT22;28552;51.146;6.576;2023-05-10T07:38:46;13.00;99.90
42907;DHT22;28552;51.146;6.576;2023-05-10T07:41:47;12.90;99.90
42907;DHT22;28552;51.146;6.576;2023-05-10T07:44:47;13.00;99.90
42907;DHT22;28552;51.146;6.576;2023-05-10T07:47:48;13.10;99.90
42907;DHT22;28552;51.146;6.576;2023-05-10T07:50:48;13.30;99.90
42907;DHT22;28552;51.146;6.576;2023-05-10T07:53:49;13.50;99.90
42907;DHT22;28552;51.146;6.576;2023-05-10T07:56:50;13.60;99.90
42907;DHT22;28552;51.146;6.576;2023-05-10T07:59:51;13.70;99.90
42907;DHT22;28552;51.146;6.576;2023-05-10T08:02:51;13.90;99.90
42907;DHT22;28552;51.146;6.576;2023-05-10T08:05:52;14.00;99.90
42907;DHT22;28552;51.146;6.576;2023-05-10T08:08:52;14.10;99.90
42907;DHT22;28552;51.146;6.576;2023-05-10T08:11:54;14.20;99.90
42907;DHT22;28552;51.146;6.576;2023-05-10T08:14:55;14.20;99.90
42907;DHT22;28552;51.146;6.576;2023-05-10T08:17:55;14.20;99.90
42907;DHT22;28552;51.146;6.576;2023-05-10T08:20:56;14.10;99.90
42907;DHT22;28552;51.146;6.576;2023-05-10T08:23:56;14.00;99.90
42907;DHT22;28552;51.146;6.576;2023-05-10T08:26:58;13.90;99.90
42907;DHT22;28552;51.146;6.576;2023-05-10T08:29:58;13.70;99.90
42907;DHT22;28552;51.146;6.576;2023-05-10T08:32:58;13.70;99.90
42907;DHT22;28552;51.146;6.576;2023-05-10T08:35:59;13.60;99.90
42907;DHT22;28552;51.146;6.576;2023-05-10T08:39:00;13.60;99.90
42907;DHT22;28552;51.146;6.576;2023-05-10T08:42:03;13.60;99.90
42907;DHT22;28552;51.146;6.576;2023-05-10T08:45:04;13.70;99.90
42907;DHT22;28552;51.146;6.576;2023-05-10T08:48:07;13.70;99.90
42907;DHT22;28552;51.146;6.576;2023-05-10T08:51:09;13.80;99.90
42907;DHT22;28552;51.146;6.576;2023-05-10T08:54:10;13.80;99.90
42907;DHT22;28552;51.146;6.576;2023-05-10T08:57:11;13.70;99.90
42907;DHT22;28552;51.146;6.576;2023-05-10T09:00:12;13.70;99.90
42907;DHT22;28552;51.146;6.576;2023-05-10T09:03:13;13.60;99.90
42907;DHT22;28552;51.146;6.576;2023-05-10T09:06:14;13.60;99.90
42907;DHT22;28552;51.146;6.576;2023-05-10T09:09:16;13.60;99.90
42907;DHT22;28552;51.146;6.576;2023-05-10T09:12:17;13.60;99.90
42907;DHT22;28552;51.146;6.576;2023-05-10T09:15:18;13.70;99.90
42907;DHT22;28552;51.146;6.576;2023-05-10T09:18:20;13.70;99.90
42907;DHT22;28552;51.146;6.576;2023-05-10T09:21:20;13.80;99.90
42907;DHT22;28552;51.146;6.576;2023-05-10T09:24:25;13.90;99.90
42907;DHT22;28552;51.146;6.576;2023-05-10T09:27:26;14.00;99.90
42907;DHT22;28552;51.146;6.576;2023-05-10T09:30:29;14.00;99.90
42907;DHT22;28552;51.146;6.576;2023-05-10T09:33:43;13.90;99.90
42907;DHT22;28552;51.146;6.576;2023-05-10T09:36:59;13.90;99.90
42907;DHT22;28552;51.146;6.576;2023-05-10T09:40:04;13.90;99.90
42907;DHT22;28552;51.146;6.576;2023-05-10T09:43:07;14.00;99.90
42907;DHT22;28552;51.146;6.576;2023-05-10T09:46:09;14.10;99.90
42907;DHT22;28552;51.146;6.576;2023-05-10T09:49:14;14.40;99.90
42907;DHT22;28552;51.146;6.576;2023-05-10T09:52:15;14.60;99.90
42907;DHT22;28552;51.146;6.576;2023-05-10T09:55:16;14.80;99.90
42907;DHT22;28552;51.146;6.576;2023-05-10T09:58:17;14.90;99.90
42907;DHT22;28552;51.146;6.576;2023-05-10T10:01:17;15.00;99.90
42907;DHT22;28552;51.146;6.576;2023-05-10T10:04:19;15.00;99.90
42907;DHT22;28552;51.146;6.576;2023-05-10T10:07:23;15.10;99.90
42907;DHT22;28552;51.146;6.576;2023-05-10T10:10:26;15.10;99.90
42907;DHT22;28552;51.146;6.576;2023-05-10T10:13:26;15.20;99.90
42907;DHT22;28552;51.146;6.576;2023-05-10T10:16:29;15.10;99.90
42907;DHT22;28552;51.146;6.576;2023-05-10T10:19:32;15.20;99.90
42907;DHT22;28552;51.146;6.576;2023-05-10T10:22:34;15.20;99.90
42907;DHT22;28552;51.146;6.576;2023-05-10T10:25:34;15.20;99.90
42907;DHT22;28552;51.146;6.576;2023-05-10T10:32:12;15.40;99.90
42907;DHT22;28552;51.146;6.576;2023-05-10T10:35:20;15.50;99.90
42907;DHT22;28552;51.146;6.576;2023-05-10T10:38:20;15.60;99.90
42907;DHT22;28552;51.146;6.576;2023-05-10T10:41:30;15.60;99.90
42907;DHT22;28552;51.146;6.576;2023-05-10T10:47:34;15.50;99.90
42907;DHT22;28552;51.146;6.576;2023-05-10T10:50:44;15.50;99.90
42907;DHT22;28552;51.146;6.576;2023-05-10T10:53:47;15.50;99.90
42907;DHT22;28552;51.146;6.576;2023-05-10T10:57:11;15.60;99.90
42907;DHT22;28552;51.146;6.576;2023-05-10T11:03:22;15.60;99.90
42907;DHT22;28552;51.146;6.576;2023-05-10T11:06:33;15.60;99.90
42907;DHT22;28552;51.146;6.576;2023-05-10T11:09:39;15.50;99.90
42907;DHT22;28552;51.146;6.576;2023-05-10T11:12:51;15.40;99.90
42907;DHT22;28552;51.146;6.576;2023-05-10T11:15:53;15.40;99.90
42907;DHT22;28552;51.146;6.576;2023-05-10T11:19:04;15.40;99.90
42907;DHT22;28552;51.146;6.576;2023-05-10T11:25:06;15.50;99.90
42907;DHT22;28552;51.146;6.576;2023-05-10T11:28:07;15.40;99.90
42907;DHT22;28552;51.146;6.576;2023-05-10T11:31:08;15.40;99.90
42907;DHT22;28552;51.146;6.576;2023-05-10T11:34:08;15.30;99.90
42907;DHT22;28552;51.146;6.576;2023-05-10T11:37:09;15.20;99.90
42907;DHT22;28552;51.146;6.576;2023-05-10T11:40:10;15.10;99.90
42907;DHT22;28552;51.146;6.576;2023-05-10T11:43:11;15.00;99.90
42907;DHT22;28552;51.146;6.576;2023-05-10T11:46:12;14.90;99.90
42907;DHT22;28552;51.146;6.576;2023-05-10T11:49:13;14.90;99.90
42907;DHT22;28552;51.146;6.576;2023-05-10T11:52:13;14.90;99.90
42907;DHT22;28552;51.146;6.576;2023-05-10T11:55:14;14.90;99.90
42907;DHT22;28552;51.146;6.576;2023-05-10T11:58:15;14.90;99.90
42907;DHT22;28552;51.146;6.576;2023-05-10T12:01:15;14.90;99.90
42907;DHT22;28552;51.146;6.576;2023-05-10T12:04:16;14.80;99.90
42907;DHT22;28552;51.146;6.576;2023-05-10T12:07:17;14.80;99.90
42907;DHT22;28552;51.146;6.576;2023-05-10T12:10:25;15.00;99.90
42907;DHT22;28552;51.146;6.576;2023-05-10T12:13:26;15.10;99.90
42907;DHT22;28552;51.146;6.576;2023-05-10T12:16:29;15.30;99.90
42907;DHT22;28552;51.146;6.576;2023-05-10T12:19:37;15.40;99.90
42907;DHT22;28552;51.146;6.576;2023-05-10T12:22:38;15.60;99.90
42907;DHT22;28552;51.146;6.576;2023-05-10T12:25:38;15.70;99.90
42907;DHT22;28552;51.146;6.576;2023-05-10T12:28:39;15.70;99.90
42907;DHT22;28552;51.146;6.576;2023-05-10T12:31:56;15.60;99.90
42907;DHT22;28552;51.146;6.576;2023-05-10T12:34:57;15.50;99.90
42907;DHT22;28552;51.146;6.576;2023-05-10T12:37:58;15.40;99.90
42907;DHT22;28552;51.146;6.576;2023-05-10T12:41:02;15.30;99.90
42907;DHT22;28552;51.146;6.576;2023-05-10T12:44:02;15.20;99.90
42907;DHT22;28552;51.146;6.576;2023-05-10T12:47:03;15.00;99.90
42907;DHT22;28552;51.146;6.576;2023-05-10T12:50:04;15.00;99.90
42907;DHT22;28552;51.146;6.576;2023-05-10T12:53:05;15.00;99.90
42907;DHT22;28552;51.146;6.576;2023-05-10T12:56:05;15.00;99.90
42907;DHT22;28552;51.146;6.576;2023-05-10T12:59:06;15.00;99.90
42907;DHT22;28552;51.146;6.576;2023-05-10T13:02:07;15.00;99.90
42907;DHT22;28552;51.146;6.576;2023-05-10T13:05:08;15.00;99.90
42907;DHT22;28552;51.146;6.576;2023-05-10T13:08:09;15.00;99.90
42907;DHT22;28552;51.146;6.576;2023-05-10T13:11:10;14.90;99.90
42907;DHT22;28552;51.146;6.576;2023-05-10T13:14:10;14.90;99.90
42907;DHT22;28552;51.146;6.576;2023-05-10T13:17:11;15.00;99.90
42907;DHT22;28552;51.146;6.576;2023-05-10T13:20:11;15.00;99.90
42907;DHT22;28552;51.146;6.576;2023-05-10T13:23:12;15.00;99.90
42907;DHT22;28552;51.146;6.576;2023-05-10T13:26:12;15.00;99.90
42907;DHT22;28552;51.146;6.576;2023-05-10T13:29:13;15.00;99.90
42907;DHT22;28552;51.146;6.576;2023-05-10T13:32:14;15.00;99.90
42907;DHT22;28552;51.146;6.576;2023-05-10T13:35:14;15.00;99.90
42907;DHT22;28552;51.146;6.576;2023-05-10T13:38:15;15.10;99.90
42907;DHT22;28552;51.146;6.576;2023-05-10T13:41:16;15.10;99.90
42907;DHT22;28552;51.146;6.576;2023-05-10T13:44:16;15.20;99.90
42907;DHT22;28552;51.146;6.576;2023-05-10T13:47:17;15.30;99.90
42907;DHT22;28552;51.146;6.576;2023-05-10T13:50:18;15.40;99.90
42907;DHT22;28552;51.146;6.576;2023-05-10T13:53:18;15.50;99.90
42907;DHT22;28552;51.146;6.576;2023-05-10T13:56:19;15.50;99.90
42907;DHT22;28552;51.146;6.576;2023-05-10T13:59:20;15.60;99.90
42907;DHT22;28552;51.146;6.576;2023-05-10T14:02:20;15.60;99.90
42907;DHT22;28552;51.146;6.576;2023-05-10T14:05:21;15.70;99.90
42907;DHT22;28552;51.146;6.576;2023-05-10T14:08:23;15.70;99.90
42907;DHT22;28552;51.146;6.576;2023-05-10T14:11:23;15.70;99.90
42907;DHT22;28552;51.146;6.576;2023-05-10T14:14:24;15.80;99.90
42907;DHT22;28552;51.146;6.576;2023-05-10T14:17:25;15.80;99.90
42907;DHT22;28552;51.146;6.576;2023-05-10T14:20:25;15.90;99.90
42907;DHT22;28552;51.146;6.576;2023-05-10T14:23:26;16.10;99.90
42907;DHT22;28552;51.146;6.576;2023-05-10T14:26:29;16.30;99.90
42907;DHT22;28552;51.146;6.576;2023-05-10T14:29:29;16.60;99.90
42907;DHT22;28552;51.146;6.576;2023-05-10T14:32:30;16.80;99.90
42907;DHT22;28552;51.146;6.576;2023-05-10T14:35:32;16.90;99.90
42907;DHT22;28552;51.146;6.576;2023-05-10T14:38:33;16.90;99.90
42907;DHT22;28552;51.146;6.576;2023-05-10T14:41:33;16.90;99.90
42907;DHT22;28552;51.146;6.576;2023-05-10T14:44:34;17.10;99.90
42907;DHT22;28552;51.146;6.576;2023-05-10T14:47:35;17.30;99.90
42907;DHT22;28552;51.146;6.576;2023-05-10T14:50:35;17.40;99.90
42907;DHT22;28552;51.146;6.576;2023-05-10T14:53:36;17.50;99.90
42907;DHT22;28552;51.146;6.576;2023-05-10T14:56:36;17.60;99.90
42907;DHT22;28552;51.146;6.576;2023-05-10T14:59:38;17.70;99.90
42907;DHT22;28552;51.146;6.576;2023-05-10T15:02:38;17.90;99.90
42907;DHT22;28552;51.146;6.576;2023-05-10T15:05:39;18.10;99.90
42907;DHT22;28552;51.146;6.576;2023-05-10T15:08:39;18.10;99.90
42907;DHT22;28552;51.146;6.576;2023-05-10T15:11:40;18.00;99.90
42907;DHT22;28552;51.146;6.576;2023-05-10T15:14:40;17.90;99.90
42907;DHT22;28552;51.146;6.576;2023-05-10T15:17:41;18.00;99.90
42907;DHT22;28552;51.146;6.576;2023-05-10T15:20:41;18.20;99.90
42907;DHT22;28552;51.146;6.576;2023-05-10T15:23:42;18.30;99.90
42907;DHT22;28552;51.146;6.576;2023-05-10T15:26:42;18.00;99.90
42907;DHT22;28552;51.146;6.576;2023-05-10T15:29:43;17.80;99.90
42907;DHT22;28552;51.146;6.576;2023-05-10T15:32:44;17.60;99.90
42907;DHT22;28552;51.146;6.576;2023-05-10T15:35:45;17.50;99.90
42907;DHT22;28552;51.146;6.576;2023-05-10T15:38:45;17.30;99.90
42907;DHT22;28552;51.146;6.576;2023-05-10T15:41:46;17.20;99.90
42907;DHT22;28552;51.146;6.576;2023-05-10T15:44:47;17.10;99.90
42907;DHT22;28552;51.146;6.576;2023-05-10T15:47:50;17.10;99.90
42907;DHT22;28552;51.146;6.576;2023-05-10T15:50:50;17.00;99.90
42907;DHT22;28552;51.146;6.576;2023-05-10T15:53:51;17.00;99.90
42907;DHT22;28552;51.146;6.576;2023-05-10T15:56:52;17.00;99.90
42907;DHT22;28552;51.146;6.576;2023-05-10T15:59:54;16.90;99.90
42907;DHT22;28552;51.146;6.576;2023-05-10T16:02:55;16.80;99.90
42907;DHT22;28552;51.146;6.576;2023-05-10T16:05:56;16.70;99.90
42907;DHT22;28552;51.146;6.576;2023-05-10T16:08:56;16.60;99.90
42907;DHT22;28552;51.146;6.576;2023-05-10T16:11:57;16.60;99.90
42907;DHT22;28552;51.146;6.576;2023-05-10T16:14:57;16.50;99.90
42907;DHT22;28552;51.146;6.576;2023-05-10T16:18:05;16.50;99.90
42907;DHT22;28552;51.146;6.576;2023-05-10T16:21:05;16.60;99.90
42907;DHT22;28552;51.146;6.576;2023-05-10T16:24:06;16.50;99.90
42907;DHT22;28552;51.146;6.576;2023-05-10T16:27:07;16.50;99.90
42907;DHT22;28552;51.146;6.576;2023-05-10T16:30:08;16.40;99.90
42907;DHT22;28552;51.146;6.576;2023-05-10T16:33:08;16.30;99.90
42907;DHT22;28552;51.146;6.576;2023-05-10T16:36:09;16.20;99.90
42907;DHT22;28552;51.146;6.576;2023-05-10T16:39:10;16.20;99.90
42907;DHT22;28552;51.146;6.576;2023-05-10T16:42:10;16.10;99.90
42907;DHT22;28552;51.146;6.576;2023-05-10T16:45:11;16.10;99.90
42907;DHT22;28552;51.146;6.576;2023-05-10T16:48:12;16.00;99.90
42907;DHT22;28552;51.146;6.576;2023-05-10T16:51:12;15.80;99.90
42907;DHT22;28552;51.146;6.576;2023-05-10T16:54:13;15.70;99.90
42907;DHT22;28552;51.146;6.576;2023-05-10T16:57:13;15.50;99.90
42907;DHT22;28552;51.146;6.576;2023-05-10T17:00:14;15.40;99.90
42907;DHT22;28552;51.146;6.576;2023-05-10T17:03:15;15.30;99.90
42907;DHT22;28552;51.146;6.576;2023-05-10T17:06:16;15.10;99.90
42907;DHT22;28552;51.146;6.576;2023-05-10T17:09:16;15.00;99.90
42907;DHT22;28552;51.146;6.576;2023-05-10T17:12:17;14.90;99.90
42907;DHT22;28552;51.146;6.576;2023-05-10T17:15:18;14.90;99.90
42907;DHT22;28552;51.146;6.576;2023-05-10T17:18:19;14.80;99.90
42907;DHT22;28552;51.146;6.576;2023-05-10T17:21:20;14.70;99.90
42907;DHT22;28552;51.146;6.576;2023-05-10T17:24:20;14.70;99.90
42907;DHT22;28552;51.146;6.576;2023-05-10T17:27:21;14.60;99.90
42907;DHT22;28552;51.146;6.576;2023-05-10T17:30:22;14.60;99.90
42907;DHT22;28552;51.146;6.576;2023-05-10T17:33:25;14.60;99.90
42907;DHT22;28552;51.146;6.576;2023-05-10T17:36:26;14.50;99.90
42907;DHT22;28552;51.146;6.576;2023-05-10T17:39:27;14.50;99.90
42907;DHT22;28552;51.146;6.576;2023-05-10T17:42:28;14.40;99.90
42907;DHT22;28552;51.146;6.576;2023-05-10T17:45:28;14.50;99.90
42907;DHT22;28552;51.146;6.576;2023-05-10T17:48:29;14.40;99.90
42907;DHT22;28552;51.146;6.576;2023-05-10T17:51:30;14.40;99.90
42907;DHT22;28552;51.146;6.576;2023-05-10T17:54:31;14.40;99.90
42907;DHT22;28552;51.146;6.576;2023-05-10T17:57:32;14.30;99.90
42907;DHT22;28552;51.146;6.576;2023-05-10T18:00:32;14.30;99.90
42907;DHT22;28552;51.146;6.576;2023-05-10T18:03:33;14.30;99.90
42907;DHT22;28552;51.146;6.576;2023-05-10T18:06:35;14.20;99.90
42907;DHT22;28552;51.146;6.576;2023-05-10T18:09:36;14.20;99.90
42907;DHT22;28552;51.146;6.576;2023-05-10T18:12:37;14.20;99.90
42907;DHT22;28552;51.146;6.576;2023-05-10T18:15:37;14.10;99.90
42907;DHT22;28552;51.146;6.576;2023-05-10T18:18:38;14.10;99.90
42907;DHT22;28552;51.146;6.576;2023-05-10T18:21:39;14.00;99.90
42907;DHT22;28552;51.146;6.576;2023-05-10T18:24:39;14.00;99.90
42907;DHT22;28552;51.146;6.576;2023-05-10T18:27:40;14.00;99.90
42907;DHT22;28552;51.146;6.576;2023-05-10T18:30:40;14.00;99.90
42907;DHT22;28552;51.146;6.576;2023-05-10T18:33:41;14.00;99.90
42907;DHT22;28552;51.146;6.576;2023-05-10T18:36:41;13.90;99.90
42907;DHT22;28552;51.146;6.576;2023-05-10T18:39:43;13.90;99.90
42907;DHT22;28552;51.146;6.576;2023-05-10T18:42:43;14.00;99.90
42907;DHT22;28552;51.146;6.576;2023-05-10T18:45:45;14.00;99.90
42907;DHT22;28552;51.146;6.576;2023-05-10T18:48:46;14.00;99.90
42907;DHT22;28552;51.146;6.576;2023-05-10T18:51:47;14.10;99.90
42907;DHT22;28552;51.146;6.576;2023-05-10T18:54:48;14.10;99.90
42907;DHT22;28552;51.146;6.576;2023-05-10T18:57:49;14.10;99.90
42907;DHT22;28552;51.146;6.576;2023-05-10T19:00:51;14.10;99.90
42907;DHT22;28552;51.146;6.576;2023-05-10T19:03:52;14.10;99.90
42907;DHT22;28552;51.146;6.576;2023-05-10T19:06:53;14.10;99.90
42907;DHT22;28552;51.146;6.576;2023-05-10T19:09:55;14.10;99.90
42907;DHT22;28552;51.146;6.576;2023-05-10T19:12:55;14.10;99.90
42907;DHT22;28552;51.146;6.576;2023-05-10T19:16:04;14.10;99.90
42907;DHT22;28552;51.146;6.576;2023-05-10T19:19:05;14.10;99.90
42907;DHT22;28552;51.146;6.576;2023-05-10T19:22:06;14.10;99.90
42907;DHT22;28552;51.146;6.576;2023-05-10T19:25:07;14.00;99.90
42907;DHT22;28552;51.146;6.576;2023-05-10T19:28:08;14.00;99.90